createdAt,value
2023-05-24T00:01:27.881Z,72.71
2023-05-24T00:04:16.828Z,73.04
2023-05-24T00:07:07.072Z,73.00
2023-05-24T00:09:55.621Z,73.09
2023-05-24T00:12:44.258Z,73.25
2023-05-24T00:15:33.203Z,73.36
2023-05-24T00:18:21.837Z,73.53
2023-05-24T00:21:12.027Z,73.69
2023-05-24T00:24:00.546Z,73.88
2023-05-24T00:26:49.502Z,73.89
2023-05-24T00:29:38.031Z,73.66
2023-05-24T00:32:26.623Z,73.57
2023-05-24T00:35:15.522Z,73.92
2023-05-24T00:38:04.122Z,73.82
2023-05-24T00:40:53.424Z,73.53
2023-05-24T00:43:45.270Z,73.41
2023-05-24T00:46:34.693Z,73.25
2023-05-24T00:49:23.772Z,73.50
2023-05-24T00:52:12.464Z,73.28
2023-05-24T00:55:01.222Z,73.58
2023-05-24T00:57:52.956Z,73.60
2023-05-24T01:00:45.216Z,73.54
2023-05-24T01:03:34.469Z,73.40
2023-05-24T01:06:24.959Z,73.56
2023-05-24T01:09:45.726Z,73.49
2023-05-24T01:12:59.626Z,73.74
2023-05-24T01:16:00.027Z,73.79
2023-05-24T01:18:55.377Z,73.64
2023-05-24T01:21:59.394Z,73.80
2023-05-24T01:25:03.961Z,73.83
2023-05-24T01:27:52.936Z,73.68
2023-05-24T01:30:41.909Z,73.79
2023-05-24T01:33:30.658Z,73.73
2023-05-24T01:36:19.354Z,73.75
2023-05-24T01:39:07.977Z,73.91
2023-05-24T01:42:07.806Z,73.83
2023-05-24T01:45:08.898Z,73.82
2023-05-24T01:48:18.758Z,74.10
2023-05-24T01:51:11.604Z,74.10
2023-05-24T01:54:01.679Z,74.13
2023-05-24T01:56:53.909Z,74.15
2023-05-24T01:59:44.623Z,74.25
2023-05-24T02:02:33.470Z,74.30
2023-05-24T02:05:22.192Z,74.53
2023-05-24T02:08:13.524Z,74.65
2023-05-24T02:11:02.817Z,74.77
2023-05-24T02:13:51.425Z,74.77
2023-05-24T02:16:43.066Z,75.06
2023-05-24T02:19:31.782Z,75.34
2023-05-24T02:22:22.420Z,75.65
2023-05-24T02:25:11.067Z,76.04
2023-05-24T02:27:59.785Z,76.06
2023-05-24T02:30:48.465Z,76.59
2023-05-24T02:33:37.326Z,76.75
2023-05-24T02:36:25.972Z,76.80
2023-05-24T02:39:14.813Z,77.21
2023-05-24T02:42:06.010Z,77.31
2023-05-24T02:44:54.551Z,77.38
2023-05-24T02:47:43.094Z,77.63
2023-05-24T02:50:31.841Z,77.60
2023-05-24T02:53:21.740Z,77.87
2023-05-24T02:56:11.405Z,77.90
2023-05-24T02:59:00.698Z,78.14
2023-05-24T03:01:51.004Z,78.38
2023-05-24T03:04:40.186Z,78.66
2023-05-24T03:07:30.537Z,78.69
2023-05-24T03:10:19.418Z,78.82
2023-05-24T03:13:07.969Z,78.80
2023-05-24T03:15:57.923Z,78.98
2023-05-24T03:18:46.915Z,78.99
2023-05-24T03:21:37.272Z,79.10
2023-05-24T03:24:26.474Z,79.29
2023-05-24T03:27:15.305Z,79.48
2023-05-24T03:30:06.596Z,79.47
2023-05-24T03:32:59.212Z,79.86
2023-05-24T03:35:47.994Z,79.99
2023-05-24T03:38:36.804Z,80.01
2023-05-24T03:41:25.498Z,80.31
2023-05-24T03:44:15.996Z,80.41
2023-05-24T03:47:05.067Z,80.59
2023-05-24T03:49:53.836Z,80.83
2023-05-24T03:52:42.932Z,80.82
2023-05-24T03:55:31.562Z,81.07
2023-05-24T03:58:20.409Z,81.39
2023-05-24T04:01:09.354Z,81.40
2023-05-24T04:04:01.498Z,81.48
2023-05-24T04:06:50.879Z,81.48
2023-05-24T04:09:40.413Z,81.54
2023-05-24T04:12:28.981Z,81.87
2023-05-24T04:15:18.116Z,81.97
2023-05-24T04:18:07.091Z,81.97
2023-05-24T04:20:56.512Z,82.19
2023-05-24T04:23:45.962Z,81.97
2023-05-24T04:26:35.063Z,81.96
2023-05-24T04:29:27.031Z,82.01
2023-05-24T04:32:16.367Z,81.86
2023-05-24T04:35:07.308Z,81.70
2023-05-24T04:37:56.230Z,81.72
2023-05-24T04:40:45.247Z,81.66
2023-05-24T04:43:34.928Z,81.79
2023-05-24T04:46:23.552Z,81.70
2023-05-24T04:49:12.939Z,81.60
2023-05-24T04:52:01.602Z,81.64
2023-05-24T04:54:51.316Z,81.62
2023-05-24T04:57:40.105Z,81.54
2023-05-24T05:00:29.192Z,81.60
2023-05-24T05:11:19.313Z,81.46
2023-05-24T05:14:09.921Z,81.47
2023-05-24T05:16:59.113Z,81.21
2023-05-24T05:19:48.359Z,81.14
2023-05-24T05:22:37.024Z,80.50
2023-05-24T05:25:25.727Z,80.25
2023-05-24T05:28:14.338Z,80.28
2023-05-24T05:31:03.405Z,79.78
2023-05-24T05:33:52.003Z,79.37
2023-05-24T05:36:41.136Z,79.59
2023-05-24T05:39:31.886Z,79.48
2023-05-24T05:42:20.665Z,79.20
2023-05-24T05:45:09.626Z,78.99
2023-05-24T05:47:58.300Z,79.17
2023-05-24T05:50:47.032Z,78.79
2023-05-24T05:53:35.626Z,78.42
2023-05-24T09:05:06.391Z,80.96
2023-05-24T09:07:57.040Z,80.25
2023-05-24T09:10:54.798Z,80.40
2023-05-24T09:13:48.448Z,80.07
2023-05-24T09:16:37.442Z,80.13
2023-05-24T09:19:28.014Z,79.63
2023-05-24T09:22:23.334Z,80.07
2023-05-24T09:25:14.911Z,80.39
2023-05-24T09:28:08.514Z,80.35
2023-05-24T09:30:59.106Z,80.01
2023-05-24T09:33:49.083Z,79.63
2023-05-24T09:36:41.970Z,79.12
2023-05-24T09:39:32.097Z,79.56
2023-05-24T09:42:24.496Z,79.63
2023-05-24T09:45:13.108Z,79.02
2023-05-24T09:48:03.992Z,78.53
2023-05-24T09:51:06.260Z,77.55
2023-05-24T09:54:00.814Z,77.61
2023-05-24T09:56:49.512Z,77.43
2023-05-24T09:59:40.158Z,76.64
2023-05-24T10:02:35.470Z,76.71
2023-05-24T10:05:30.444Z,76.71
2023-05-24T10:08:20.606Z,76.73
2023-05-24T10:11:09.676Z,76.59
2023-05-24T10:13:59.124Z,76.04
2023-05-24T10:16:48.412Z,75.33
2023-05-24T10:19:38.189Z,75.83
2023-05-24T10:22:28.108Z,76.25
2023-05-24T10:25:27.743Z,75.72
2023-05-24T10:28:17.227Z,74.69
2023-05-24T10:31:12.536Z,74.84
2023-05-24T10:34:07.975Z,75.24
2023-05-24T10:36:59.154Z,74.43
2023-05-24T10:39:47.823Z,73.95
2023-05-24T10:42:36.504Z,72.60
2023-05-24T10:45:25.068Z,72.77
2023-05-24T10:48:13.893Z,73.11
2023-05-24T10:51:36.668Z,73.08
2023-05-24T10:54:27.349Z,73.27
2023-05-24T10:57:24.517Z,73.06
2023-05-24T11:03:23.756Z,73.62
2023-05-24T11:06:12.415Z,73.52
2023-05-24T11:09:01.104Z,72.89
2023-05-24T11:11:55.793Z,72.93
2023-05-24T11:14:52.732Z,73.06
2023-05-24T11:18:09.578Z,72.79
2023-05-24T11:21:03.459Z,72.11
2023-05-24T11:23:52.097Z,72.67
2023-05-24T11:26:41.281Z,72.43
2023-05-24T11:29:30.672Z,72.81
2023-05-24T11:41:12.325Z,72.77
2023-05-24T11:44:01.265Z,72.72
2023-05-24T11:46:50.151Z,72.61
2023-05-24T12:01:27.553Z,72.26
2023-05-24T12:04:16.695Z,72.48
2023-05-24T12:07:10.948Z,72.65
2023-05-24T12:10:00.215Z,72.26
2023-05-24T12:12:49.077Z,72.34
2023-05-24T12:15:38.198Z,72.88
2023-05-24T12:18:27.367Z,73.15
2023-05-24T12:21:16.247Z,72.57
2023-05-24T12:24:16.564Z,72.81
2023-05-24T12:27:07.993Z,73.14
2023-05-24T12:30:07.144Z,72.71
2023-05-24T12:32:57.305Z,72.78
2023-05-24T12:35:47.361Z,72.69
2023-05-24T12:38:36.197Z,73.19
2023-05-24T12:41:25.597Z,72.96
2023-05-24T12:44:14.428Z,73.56
2023-05-24T12:47:05.285Z,73.84
2023-05-24T12:49:54.199Z,73.47
2023-05-24T12:52:44.910Z,73.18
2023-05-24T12:55:33.777Z,72.52
2023-05-24T12:58:22.699Z,72.69
2023-05-24T13:01:12.513Z,72.84
2023-05-24T13:04:01.418Z,73.20
2023-05-24T13:06:50.378Z,72.57
2023-05-24T13:09:39.427Z,72.14
2023-05-24T13:12:28.229Z,72.42
2023-05-24T13:15:19.439Z,71.95
2023-05-24T13:18:08.960Z,72.17
2023-05-24T13:21:00.706Z,72.66
2023-05-24T13:23:49.662Z,72.82
2023-05-24T13:26:39.086Z,72.79
2023-05-24T13:29:39.575Z,72.86
2023-05-24T13:32:31.963Z,73.04
2023-05-24T13:35:20.597Z,72.74
2023-05-24T13:38:09.176Z,72.10
2023-05-24T13:40:57.912Z,72.72
2023-05-24T13:43:46.979Z,73.40
2023-05-24T13:46:36.661Z,73.20
2023-05-24T13:49:25.439Z,73.21
2023-05-24T13:52:14.082Z,72.16
2023-05-24T13:55:06.250Z,72.22
2023-05-24T13:57:57.024Z,71.93
2023-05-24T14:00:45.704Z,72.23
2023-05-24T14:03:34.573Z,72.18
2023-05-24T14:06:23.194Z,72.38
2023-05-24T14:09:11.753Z,72.51
2023-05-24T14:12:02.348Z,72.28
2023-05-24T14:17:42.358Z,72.59
2023-05-24T14:20:33.225Z,73.00
2023-05-24T14:23:22.105Z,72.72
2023-05-24T14:26:10.677Z,72.50
2023-05-24T14:28:59.277Z,72.50
2023-05-24T14:31:47.869Z,73.02
2023-05-24T14:34:36.755Z,73.34
2023-05-24T14:37:25.445Z,73.65
2023-05-24T14:40:15.423Z,72.92
2023-05-24T14:43:10.674Z,72.98
2023-05-24T14:45:59.894Z,72.15
2023-05-24T14:48:48.581Z,72.18
2023-05-24T14:51:38.320Z,72.33
2023-05-24T14:54:27.464Z,72.30
2023-05-24T14:57:16.625Z,71.76
2023-05-24T15:00:06.472Z,71.98
2023-05-24T15:02:55.443Z,72.24
2023-05-24T15:05:44.544Z,72.96
2023-05-24T15:08:35.317Z,73.29
2023-05-24T15:11:23.879Z,73.10
2023-05-24T15:14:12.448Z,73.04
2023-05-24T15:17:01.019Z,72.97
2023-05-24T15:19:49.717Z,72.72
2023-05-24T15:22:38.748Z,72.79
2023-05-24T15:25:27.682Z,72.70
2023-05-24T15:28:18.420Z,72.37
2023-05-24T15:31:07.417Z,72.36
2023-05-24T15:33:56.441Z,72.29
2023-05-24T15:36:45.882Z,72.30
2023-05-24T15:39:34.511Z,71.83
2023-05-24T15:42:24.747Z,72.00
2023-05-24T15:45:13.456Z,72.08
2023-05-24T15:48:05.842Z,72.10
2023-05-24T15:51:42.755Z,72.83
2023-05-24T15:54:03.622Z,72.99
2023-05-24T15:56:54.414Z,72.46
2023-05-24T15:59:43.181Z,72.46
2023-05-24T16:02:31.988Z,72.87
2023-05-24T16:05:22.722Z,73.18
2023-05-24T16:08:11.690Z,72.59
2023-05-24T16:11:00.585Z,72.57
2023-05-24T16:13:50.416Z,72.63
2023-05-24T16:16:39.367Z,73.28
2023-05-24T16:19:28.335Z,73.24
2023-05-24T16:22:17.442Z,73.30
2023-05-24T16:25:06.945Z,73.37
2023-05-24T16:27:56.528Z,73.61
2023-05-24T16:30:45.727Z,74.00
2023-05-24T16:33:34.754Z,73.32
2023-05-24T16:36:24.087Z,73.23
2023-05-24T16:39:13.548Z,73.42
2023-05-24T16:42:03.811Z,73.23
2023-05-24T16:44:52.700Z,73.58
2023-05-24T16:47:41.911Z,73.64
2023-05-24T16:50:31.059Z,73.79
2023-05-24T16:53:23.035Z,73.95
2023-05-24T16:56:12.234Z,73.73
2023-05-24T16:59:01.096Z,73.76
2023-05-24T17:01:51.761Z,74.16
2023-05-24T17:04:40.601Z,74.22
2023-05-24T17:07:29.216Z,74.39
2023-05-24T17:10:18.041Z,74.54
2023-05-24T17:13:06.531Z,74.60
2023-05-24T17:15:56.576Z,74.80
2023-05-24T17:18:45.334Z,74.83
2023-05-24T17:21:33.957Z,75.20
2023-05-24T17:24:25.290Z,75.43
2023-05-24T17:27:13.862Z,75.52
2023-05-24T17:30:02.408Z,75.67
2023-05-24T17:32:51.060Z,75.51
2023-05-24T17:35:41.284Z,75.51
2023-05-24T17:38:33.314Z,75.47
2023-05-24T17:41:21.948Z,75.62
2023-05-24T17:44:11.205Z,75.86
2023-05-24T17:46:59.892Z,76.00
2023-05-24T17:49:48.460Z,76.05
2023-05-24T17:52:37.198Z,76.01
2023-05-24T17:55:26.898Z,76.06
2023-05-24T17:58:15.600Z,76.24
2023-05-24T18:01:06.101Z,76.43
2023-05-24T18:03:54.985Z,76.39
2023-05-24T18:06:43.940Z,76.59
2023-05-24T18:09:32.878Z,76.51
2023-05-24T18:12:24.938Z,76.50
2023-05-24T18:15:13.837Z,76.47
2023-05-24T18:18:03.281Z,76.81
2023-05-24T18:20:52.700Z,76.81
2023-05-24T18:23:42.554Z,76.72
2023-05-24T18:26:31.163Z,76.81
2023-05-24T18:29:20.295Z,76.74
2023-05-24T18:32:09.152Z,76.76
2023-05-24T18:34:57.803Z,76.88
2023-05-24T18:37:47.151Z,76.78
2023-05-24T18:40:36.455Z,76.96
2023-05-24T18:43:25.041Z,77.22
2023-05-24T18:46:15.110Z,77.21
2023-05-24T18:49:04.097Z,77.35
2023-05-24T18:51:52.638Z,77.22
2023-05-24T18:54:41.125Z,77.21
2023-05-24T18:57:31.334Z,77.26
2023-05-24T19:00:22.778Z,77.27
2023-05-24T19:03:12.235Z,77.32
2023-05-24T19:06:00.898Z,77.62
2023-05-24T19:08:49.486Z,77.71
2023-05-24T19:11:38.055Z,77.65
2023-05-24T19:14:26.641Z,77.82
2023-05-24T19:17:15.185Z,77.88
2023-05-24T19:20:04.635Z,78.17
2023-05-24T19:22:53.756Z,78.34
2023-05-24T19:25:44.098Z,78.22
2023-05-24T19:28:37.716Z,78.00
2023-05-24T19:31:26.981Z,78.26
2023-05-24T19:34:15.815Z,78.13
2023-05-24T19:37:04.680Z,78.17
2023-05-24T19:39:53.216Z,78.25
2023-05-24T19:42:41.976Z,78.54
2023-05-24T19:45:31.174Z,78.64
2023-05-24T19:48:20.494Z,78.67
2023-05-24T19:51:09.263Z,78.75
2023-05-24T19:53:57.824Z,78.70
2023-05-24T19:56:50.178Z,78.94
2023-05-24T19:59:38.722Z,78.92
2023-05-24T20:02:27.450Z,78.92
2023-05-24T20:05:17.351Z,78.80
2023-05-24T20:08:07.032Z,78.89
2023-05-24T20:10:55.772Z,78.99
2023-05-24T20:13:44.475Z,78.93
2023-05-24T20:16:33.418Z,79.10
2023-05-24T20:19:22.436Z,79.21
2023-05-24T20:22:11.556Z,79.33
2023-05-24T20:25:00.160Z,79.27
2023-05-24T20:27:48.894Z,79.10
2023-05-24T20:30:37.544Z,79.35
2023-05-24T20:33:26.288Z,79.39
2023-05-24T20:36:15.523Z,79.10
2023-05-24T20:39:04.330Z,79.15
2023-05-24T20:41:53.384Z,79.25
2023-05-24T20:44:41.912Z,79.12
2023-05-24T20:47:30.583Z,79.32
2023-05-24T20:50:19.164Z,79.54
2023-05-24T20:53:07.696Z,79.52
2023-05-24T20:55:56.741Z,79.56
2023-05-24T20:58:46.226Z,79.80
2023-05-24T21:01:34.723Z,79.73
2023-05-24T21:04:23.402Z,79.73
2023-05-24T21:07:11.976Z,79.96
2023-05-24T21:10:00.568Z,80.04
2023-05-24T21:12:49.231Z,80.02
2023-05-24T21:15:37.916Z,79.98
2023-05-24T21:18:26.446Z,80.01
2023-05-24T21:21:15.056Z,80.17
2023-05-24T21:24:03.710Z,80.02
2023-05-24T21:26:52.241Z,80.23
2023-05-24T21:29:41.896Z,80.08
2023-05-24T21:32:30.510Z,80.16
2023-05-24T21:35:19.053Z,80.25
2023-05-24T21:38:07.688Z,80.02
2023-05-24T21:40:56.497Z,80.25
2023-05-24T21:43:45.187Z,80.33
2023-05-24T21:46:34.241Z,80.48
2023-05-24T21:49:23.123Z,80.37
2023-05-24T21:52:12.080Z,80.59
2023-05-24T21:55:00.893Z,80.48
2023-05-24T21:57:49.659Z,80.60
2023-05-24T22:00:38.553Z,80.53
2023-05-24T22:03:27.124Z,80.64
2023-05-24T22:06:15.881Z,80.64
2023-05-24T22:09:04.472Z,80.70
2023-05-24T22:11:53.256Z,80.43
2023-05-24T22:14:41.971Z,80.73
2023-05-24T22:17:32.926Z,80.80
2023-05-24T22:20:22.459Z,80.66
2023-05-24T22:23:12.086Z,80.70
2023-05-24T22:26:00.939Z,80.88
2023-05-24T22:29:00.761Z,80.65
2023-05-24T22:31:49.466Z,80.72
2023-05-24T22:34:38.090Z,80.82
2023-05-24T22:37:26.602Z,80.97
2023-05-24T22:40:15.199Z,80.49
2023-05-24T22:43:03.708Z,80.54
2023-05-24T22:45:52.779Z,80.51
2023-05-24T22:48:41.558Z,80.75
2023-05-24T22:51:30.145Z,80.64
2023-05-24T22:54:19.149Z,80.78
2023-05-24T22:57:08.089Z,80.71
2023-05-24T22:59:56.737Z,80.82
2023-05-24T23:02:46.916Z,80.59
2023-05-24T23:05:35.892Z,80.89
2023-05-24T23:08:25.675Z,80.74
2023-05-24T23:11:17.239Z,80.82
2023-05-24T23:14:11.331Z,80.99
2023-05-24T23:17:02.711Z,81.07
2023-05-24T23:19:51.578Z,80.95
2023-05-24T23:22:40.402Z,81.01
2023-05-24T23:25:29.225Z,81.18
2023-05-24T23:28:17.892Z,81.25
2023-05-24T23:31:06.513Z,81.14
2023-05-24T23:33:55.058Z,81.29
2023-05-24T23:36:43.624Z,81.24
2023-05-24T23:39:32.213Z,81.15
2023-05-24T23:42:21.046Z,81.05
2023-05-24T23:45:09.913Z,81.19
2023-05-24T23:47:59.198Z,81.38
2023-05-24T23:50:53.987Z,81.47
2023-05-24T23:53:43.424Z,81.62
2023-05-24T23:56:32.061Z,81.68
2023-05-24T23:59:20.884Z,81.69
